createdAt,value
2022-10-17T00:02:11.785Z,65.17
2022-10-17T00:04:38.526Z,65.06
2022-10-17T00:07:05.240Z,65.19
2022-10-17T00:09:31.966Z,65.09
2022-10-17T00:11:58.654Z,65.11
2022-10-17T00:14:25.432Z,65.30
2022-10-17T00:16:52.128Z,65.47
2022-10-17T00:19:18.805Z,65.70
2022-10-17T00:21:45.537Z,65.80
2022-10-17T00:24:12.217Z,65.82
2022-10-17T00:26:38.927Z,65.74
2022-10-17T00:29:06.084Z,65.78
2022-10-17T00:31:32.879Z,65.85
2022-10-17T00:33:59.578Z,65.74
2022-10-17T00:36:26.818Z,65.74
2022-10-17T00:38:56.961Z,65.80
2022-10-17T00:41:27.704Z,66.03
2022-10-17T00:44:00.603Z,65.71
2022-10-17T00:46:36.642Z,65.77
2022-10-17T00:49:09.157Z,65.96
2022-10-17T00:51:43.318Z,66.10
2022-10-17T00:54:11.622Z,65.81
2022-10-17T00:56:40.638Z,65.88
2022-10-17T00:59:12.768Z,65.86
2022-10-17T01:01:48.388Z,65.61
2022-10-17T01:04:16.229Z,65.62
2022-10-17T01:06:42.878Z,65.76
2022-10-17T01:09:09.659Z,65.77
2022-10-17T01:11:54.492Z,65.80
2022-10-17T01:14:41.178Z,66.16
2022-10-17T01:17:18.778Z,66.12
2022-10-17T01:20:00.898Z,66.21
2022-10-17T01:22:47.531Z,66.17
2022-10-17T01:25:38.385Z,66.27
2022-10-17T01:28:27.304Z,66.22
2022-10-17T01:31:08.885Z,66.41
2022-10-17T01:33:50.920Z,66.96
2022-10-17T01:36:39.668Z,66.78
2022-10-17T01:39:36.835Z,66.33
2022-10-17T01:42:23.568Z,66.38
2022-10-17T01:45:01.342Z,66.43
2022-10-17T01:47:32.680Z,66.30
2022-10-17T01:50:20.260Z,66.33
2022-10-17T01:52:53.367Z,66.31
2022-10-17T01:55:28.703Z,66.15
2022-10-17T01:58:01.065Z,66.06
2022-10-17T02:00:28.445Z,66.47
2022-10-17T02:03:00.948Z,66.76
2022-10-17T02:05:39.778Z,66.83
2022-10-17T02:08:07.675Z,66.44
2022-10-17T02:10:49.675Z,66.54
2022-10-17T02:13:35.447Z,66.63
2022-10-17T02:16:14.478Z,66.63
2022-10-17T02:18:51.369Z,66.69
2022-10-17T02:21:41.973Z,66.65
2022-10-17T02:24:08.652Z,66.80
2022-10-17T02:26:48.805Z,66.82
2022-10-17T02:29:19.617Z,66.72
2022-10-17T02:31:53.266Z,66.87
2022-10-17T02:34:28.149Z,66.83
2022-10-17T02:37:00.632Z,67.11
2022-10-17T02:39:29.833Z,67.19
2022-10-17T02:41:59.288Z,67.05
2022-10-17T02:44:28.549Z,67.03
2022-10-17T02:47:04.067Z,67.20
2022-10-17T02:49:39.002Z,67.15
2022-10-17T02:52:17.283Z,67.24
2022-10-17T02:54:52.086Z,67.19
2022-10-17T02:57:31.424Z,67.16
2022-10-17T03:00:01.500Z,67.24
2022-10-17T03:02:28.938Z,67.00
2022-10-17T03:04:56.724Z,67.03
2022-10-17T03:07:23.465Z,67.00
2022-10-17T03:09:50.115Z,67.32
2022-10-17T03:12:16.820Z,67.09
2022-10-17T03:14:43.501Z,67.22
2022-10-17T03:17:10.241Z,67.11
2022-10-17T03:19:37.056Z,67.24
2022-10-17T03:22:03.776Z,67.25
2022-10-17T03:24:30.517Z,67.31
2022-10-17T03:26:57.272Z,67.39
2022-10-17T03:29:24.067Z,67.20
2022-10-17T03:31:50.823Z,67.32
2022-10-17T03:34:19.048Z,67.14
2022-10-17T03:36:46.337Z,67.23
2022-10-17T03:39:13.176Z,67.22
2022-10-17T03:41:39.986Z,67.29
2022-10-17T03:44:06.748Z,67.31
2022-10-17T03:46:33.589Z,67.33
2022-10-17T03:49:00.456Z,67.27
2022-10-17T03:51:27.192Z,67.43
2022-10-17T03:53:54.041Z,67.35
2022-10-17T03:56:25.848Z,67.26
2022-10-17T03:58:52.859Z,67.41
2022-10-17T04:01:20.338Z,67.31
2022-10-17T04:03:55.008Z,67.58
2022-10-17T04:06:22.664Z,67.76
2022-10-17T04:08:49.825Z,67.55
2022-10-17T04:11:19.479Z,67.80
2022-10-17T04:13:46.484Z,67.78
2022-10-17T04:16:15.839Z,67.92
2022-10-17T04:18:43.888Z,67.63
2022-10-17T04:21:12.572Z,67.70
2022-10-17T04:23:40.209Z,67.75
2022-10-17T04:26:07.530Z,67.80
2022-10-17T04:28:36.019Z,67.78
2022-10-17T04:31:08.466Z,67.69
2022-10-17T04:33:35.350Z,67.73
2022-10-17T04:36:05.267Z,67.63
2022-10-17T04:38:32.995Z,67.87
2022-10-17T04:41:05.843Z,68.01
2022-10-17T04:43:35.034Z,68.08
2022-10-17T04:46:04.321Z,68.17
2022-10-17T04:48:31.517Z,68.21
2022-10-17T04:51:07.289Z,68.24
2022-10-17T04:53:35.623Z,68.20
2022-10-17T04:56:08.772Z,68.00
2022-10-17T04:58:35.584Z,67.97
2022-10-17T05:01:11.225Z,68.09
2022-10-17T05:03:38.378Z,67.84
2022-10-17T05:06:11.051Z,68.21
2022-10-17T05:08:38.318Z,68.19
2022-10-17T05:11:06.108Z,68.27
2022-10-17T05:13:33.426Z,68.15
2022-10-17T05:16:01.451Z,68.08
2022-10-17T05:18:29.349Z,68.17
2022-10-17T05:20:56.354Z,68.18
2022-10-17T05:23:23.128Z,68.17
2022-10-17T05:25:54.861Z,68.18
2022-10-17T05:28:22.295Z,68.47
2022-10-17T05:30:49.644Z,68.69
2022-10-17T05:33:16.580Z,68.64
2022-10-17T05:35:43.324Z,68.81
2022-10-17T05:38:10.059Z,68.54
2022-10-17T05:40:38.717Z,68.77
2022-10-17T05:43:05.766Z,68.93
2022-10-17T05:45:32.799Z,69.03
2022-10-17T05:47:59.514Z,69.09
2022-10-17T05:50:26.320Z,69.25
2022-10-17T05:52:54.613Z,69.20
2022-10-17T05:55:21.964Z,69.36
2022-10-17T05:57:49.608Z,69.19
2022-10-17T06:00:16.755Z,69.22
2022-10-17T06:02:46.164Z,69.29
2022-10-17T06:05:14.029Z,69.51
2022-10-17T06:07:41.313Z,69.71
2022-10-17T06:10:08.411Z,69.69
2022-10-17T06:12:35.284Z,69.69
2022-10-17T06:15:01.994Z,69.44
2022-10-17T06:17:30.529Z,69.69
2022-10-17T06:19:57.802Z,69.61
2022-10-17T06:22:24.696Z,69.82
2022-10-17T06:24:52.905Z,69.89
2022-10-17T06:27:20.984Z,69.92
2022-10-17T06:29:48.511Z,70.14
2022-10-17T06:32:15.376Z,70.06
2022-10-17T06:34:42.361Z,70.02
2022-10-17T06:37:09.075Z,70.20
2022-10-17T06:39:36.260Z,70.28
2022-10-17T06:42:04.232Z,70.18
2022-10-17T06:44:32.161Z,70.13
2022-10-17T06:47:00.197Z,69.99
2022-10-17T06:49:28.240Z,69.96
2022-10-17T06:51:55.119Z,70.27
2022-10-17T06:54:21.843Z,70.87
2022-10-17T06:56:48.596Z,71.06
2022-10-17T06:59:15.988Z,71.53
2022-10-17T07:01:46.154Z,71.69
2022-10-17T07:04:14.736Z,71.71
2022-10-17T07:06:41.504Z,71.65
2022-10-17T07:09:08.288Z,71.78
2022-10-17T07:11:37.988Z,71.83
2022-10-17T07:14:04.766Z,71.69
2022-10-17T07:16:31.614Z,71.68
2022-10-17T07:18:58.322Z,71.99
2022-10-17T07:21:25.541Z,72.11
2022-10-17T07:23:52.275Z,72.20
2022-10-17T07:26:20.149Z,72.09
2022-10-17T07:28:51.344Z,72.08
2022-10-17T07:31:19.970Z,72.12
2022-10-17T07:36:18.928Z,72.30
2022-10-17T07:38:45.709Z,72.22
2022-10-17T07:41:17.791Z,71.88
2022-10-17T07:43:47.894Z,72.07
2022-10-17T07:46:14.594Z,72.17
2022-10-17T07:48:41.403Z,72.58
2022-10-17T07:51:10.412Z,72.49
2022-10-17T07:53:39.080Z,72.24
2022-10-17T07:56:07.557Z,72.19
2022-10-17T07:58:35.534Z,72.09
2022-10-17T08:01:10.867Z,72.30
2022-10-17T08:03:45.528Z,72.56
2022-10-17T08:06:12.955Z,72.64
2022-10-17T08:08:39.744Z,72.31
2022-10-17T08:11:11.956Z,72.36
2022-10-17T08:13:40.458Z,72.49
2022-10-17T08:16:09.886Z,72.55
2022-10-17T08:18:38.975Z,72.62
2022-10-17T08:21:09.443Z,72.76
2022-10-17T08:23:37.157Z,72.68
2022-10-17T08:26:06.747Z,72.81
2022-10-17T08:28:36.470Z,72.69
2022-10-17T08:31:09.371Z,72.78
2022-10-17T08:33:36.218Z,72.39
2022-10-17T08:36:04.477Z,72.31
2022-10-17T08:38:35.443Z,72.37
2022-10-17T08:41:30.444Z,72.61
2022-10-17T08:44:22.355Z,72.54
2022-10-17T08:46:54.186Z,72.78
2022-10-17T08:49:48.810Z,72.58
2022-10-17T08:52:45.236Z,72.58
2022-10-17T08:55:42.902Z,72.62
2022-10-17T08:58:28.292Z,72.67
2022-10-17T09:01:28.736Z,72.13
2022-10-17T09:04:21.009Z,72.23
2022-10-17T09:06:58.931Z,72.22
2022-10-17T09:09:32.282Z,72.22
2022-10-17T09:12:23.497Z,72.08
2022-10-17T09:15:28.197Z,71.71
2022-10-17T09:18:10.198Z,71.86
2022-10-17T09:20:42.130Z,71.93
2022-10-17T09:23:59.458Z,71.52
2022-10-17T09:26:39.629Z,71.51
2022-10-17T09:29:17.892Z,71.36
2022-10-17T09:31:52.634Z,71.08
2022-10-17T09:34:21.081Z,70.79
2022-10-17T09:36:50.032Z,70.82
2022-10-17T09:39:24.991Z,70.78
2022-10-17T09:41:57.328Z,70.73
2022-10-17T09:44:35.380Z,70.47
2022-10-17T09:47:20.627Z,70.25
2022-10-17T09:49:49.678Z,70.36
2022-10-17T09:52:33.582Z,70.02
2022-10-17T09:55:06.175Z,69.64
2022-10-17T09:57:53.649Z,69.45
2022-10-17T10:00:27.070Z,69.20
2022-10-17T10:03:24.425Z,68.99
2022-10-17T10:06:21.978Z,68.82
2022-10-17T10:08:58.815Z,68.21
2022-10-17T10:11:52.105Z,68.58
2022-10-17T10:14:39.858Z,68.26
2022-10-17T10:17:44.947Z,68.10
2022-10-17T10:20:33.833Z,68.04
2022-10-17T10:23:14.998Z,68.19
2022-10-17T10:26:00.003Z,68.19
2022-10-17T10:28:29.907Z,67.66
2022-10-17T10:33:46.949Z,67.44
2022-10-17T10:36:16.334Z,66.73
2022-10-17T10:38:51.588Z,66.72
2022-10-17T10:41:18.352Z,66.87
2022-10-17T10:43:51.858Z,66.88
2022-10-17T10:46:22.168Z,66.81
2022-10-17T10:48:55.257Z,66.58
2022-10-17T10:51:30.749Z,66.16
2022-10-17T10:54:13.084Z,66.01
2022-10-17T10:56:55.587Z,66.05
2022-10-17T10:59:36.481Z,65.51
2022-10-17T11:02:25.390Z,64.92
2022-10-17T11:04:58.131Z,65.19
2022-10-17T11:07:33.581Z,65.07
2022-10-17T11:10:10.355Z,63.98
2022-10-17T11:12:42.387Z,64.01
2022-10-17T11:15:19.688Z,63.91
2022-10-17T11:17:51.857Z,63.37
2022-10-17T11:20:29.967Z,62.87
2022-10-17T11:23:10.155Z,62.89
2022-10-17T11:25:41.248Z,62.17
2022-10-17T11:28:19.637Z,61.14
2022-10-17T11:30:52.520Z,60.66
2022-10-17T11:33:27.852Z,60.67
2022-10-17T11:35:58.945Z,60.22
2022-10-17T11:38:43.588Z,59.33
2022-10-17T11:41:15.707Z,59.80
2022-10-17T11:44:01.972Z,59.46
2022-10-17T11:46:29.695Z,58.20
2022-10-17T11:49:00.248Z,56.87
2022-10-17T11:54:16.567Z,55.28
2022-10-17T11:56:52.570Z,54.90
2022-10-17T11:59:38.047Z,54.92
2022-10-17T12:02:16.936Z,53.20
2022-10-17T12:05:02.575Z,53.29
2022-10-17T12:07:51.622Z,52.11
2022-10-17T12:10:30.127Z,51.90
2022-10-17T12:12:56.861Z,51.42
2022-10-17T12:15:23.581Z,51.45
2022-10-17T12:18:03.125Z,48.98
2022-10-17T12:20:36.002Z,45.82
2022-10-17T12:23:06.176Z,46.66
2022-10-17T12:28:15.213Z,45.29
2022-10-17T12:30:54.541Z,44.50
2022-10-17T12:33:29.174Z,43.40
2022-10-17T12:36:17.759Z,42.41
2022-10-17T12:39:13.912Z,42.71
2022-10-17T12:41:40.835Z,43.36
2022-10-17T12:44:13.582Z,43.86
2022-10-17T12:46:51.919Z,42.69
2022-10-17T12:49:23.978Z,41.03
2022-10-17T12:52:29.909Z,42.19
2022-10-17T12:55:12.997Z,40.64
2022-10-17T12:58:05.164Z,41.67
2022-10-17T13:01:11.829Z,40.16
2022-10-17T13:03:44.748Z,40.29
2022-10-17T13:06:20.948Z,40.47
2022-10-17T13:08:56.848Z,41.01
2022-10-17T13:11:29.292Z,40.36
2022-10-17T13:13:59.636Z,40.35
2022-10-17T13:16:36.930Z,39.29
2022-10-17T13:19:13.334Z,40.69
2022-10-17T13:21:40.156Z,39.71
2022-10-17T13:24:42.586Z,40.14
2022-10-17T13:27:26.899Z,37.31
2022-10-17T13:29:56.544Z,39.16
2022-10-17T13:32:25.488Z,39.08
2022-10-17T13:35:07.348Z,39.68
2022-10-17T13:37:35.337Z,38.19
2022-10-17T13:40:16.262Z,39.29
2022-10-17T13:42:51.025Z,38.88
2022-10-17T13:45:37.145Z,37.45
2022-10-17T13:48:10.859Z,38.06
2022-10-17T13:50:45.292Z,37.26
2022-10-17T13:53:20.395Z,38.21
2022-10-17T13:56:28.383Z,38.18
2022-10-17T13:59:08.363Z,38.23
2022-10-17T14:01:35.355Z,38.57
2022-10-17T14:04:09.000Z,38.67
2022-10-17T14:06:46.215Z,37.96
2022-10-17T14:09:31.014Z,37.78
2022-10-17T14:12:16.838Z,38.11
2022-10-17T14:15:09.678Z,37.11
2022-10-17T14:17:38.741Z,37.06
2022-10-17T14:20:34.486Z,37.52
2022-10-17T14:23:20.891Z,37.27
2022-10-17T14:25:41.456Z,37.75
2022-10-17T14:28:11.913Z,38.03
2022-10-17T14:31:03.197Z,38.32
2022-10-17T14:33:32.149Z,39.20
2022-10-17T14:36:01.986Z,40.01
2022-10-17T14:38:30.447Z,40.27
2022-10-17T14:41:30.589Z,40.35
2022-10-17T14:44:00.090Z,39.71
2022-10-17T14:46:27.934Z,40.14
2022-10-17T14:49:05.777Z,40.42
2022-10-17T14:51:44.701Z,40.32
2022-10-17T14:54:26.133Z,40.39
2022-10-17T14:56:55.110Z,41.44
2022-10-17T14:59:51.985Z,41.48
2022-10-17T15:02:13.530Z,41.55
2022-10-17T15:04:40.537Z,41.08
2022-10-17T15:07:07.455Z,40.79
2022-10-17T15:09:34.174Z,40.48
2022-10-17T15:12:05.131Z,40.77
2022-10-17T15:14:31.802Z,41.22
2022-10-17T15:16:58.596Z,41.06
2022-10-17T15:19:25.300Z,40.88
2022-10-17T15:21:51.982Z,41.64
2022-10-17T15:24:18.832Z,41.28
2022-10-17T15:26:45.630Z,41.45
2022-10-17T15:29:16.334Z,42.33
2022-10-17T15:31:43.317Z,41.63
2022-10-17T15:34:10.038Z,42.41
2022-10-17T15:36:41.421Z,42.85
2022-10-17T15:39:10.435Z,42.35
2022-10-17T15:41:37.201Z,42.46
2022-10-17T15:44:04.066Z,42.42
2022-10-17T15:46:34.205Z,42.41
2022-10-17T15:51:53.030Z,42.93
2022-10-17T15:54:22.135Z,42.90
2022-10-17T15:56:54.603Z,44.21
2022-10-17T15:59:26.223Z,45.12
2022-10-17T16:01:52.943Z,45.04
2022-10-17T16:04:19.786Z,45.07
2022-10-17T16:06:46.571Z,45.86
2022-10-17T16:09:13.421Z,45.41
2022-10-17T16:11:42.928Z,45.30
2022-10-17T16:14:16.908Z,44.99
2022-10-17T16:16:44.891Z,44.67
2022-10-17T16:19:12.681Z,44.78
2022-10-17T16:21:41.043Z,44.46
2022-10-17T16:24:11.606Z,44.62
2022-10-17T16:26:41.342Z,44.91
2022-10-17T16:29:09.543Z,45.05
2022-10-17T16:31:40.142Z,45.27
2022-10-17T16:34:07.928Z,44.97
2022-10-17T16:36:35.357Z,45.53
2022-10-17T16:39:02.140Z,44.65
2022-10-17T16:41:31.737Z,44.77
2022-10-17T16:44:01.861Z,45.18
2022-10-17T16:46:30.844Z,45.31
2022-10-17T16:48:58.124Z,45.82
2022-10-17T16:51:25.565Z,46.26
2022-10-17T16:53:54.570Z,47.00
2022-10-17T16:56:23.323Z,47.59
2022-10-17T16:58:51.974Z,47.63
2022-10-17T17:01:21.477Z,47.64
2022-10-17T17:03:48.530Z,48.19
2022-10-17T17:06:19.197Z,48.00
2022-10-17T17:08:46.932Z,48.08
2022-10-17T17:11:16.227Z,48.30
2022-10-17T17:13:43.058Z,48.09
2022-10-17T17:16:16.438Z,47.83
2022-10-17T17:18:43.770Z,48.58
2022-10-17T17:21:11.450Z,49.12
2022-10-17T17:23:41.347Z,49.23
2022-10-17T17:26:14.796Z,49.12
2022-10-17T17:28:42.726Z,49.16
2022-10-17T17:31:12.414Z,49.57
2022-10-17T17:33:40.754Z,49.35
2022-10-17T17:36:10.880Z,49.59
2022-10-17T17:38:37.944Z,49.53
2022-10-17T17:41:05.351Z,49.93
2022-10-17T17:43:32.355Z,50.13
2022-10-17T17:46:01.931Z,50.25
2022-10-17T17:48:28.827Z,50.01
2022-10-17T17:50:57.128Z,50.04
2022-10-17T17:53:24.984Z,49.82
2022-10-17T17:56:08.163Z,49.98
2022-10-17T17:58:35.643Z,50.09
2022-10-17T18:01:12.186Z,49.91
2022-10-17T18:03:41.434Z,49.95
2022-10-17T18:06:09.465Z,50.35
2022-10-17T18:08:36.848Z,50.51
2022-10-17T18:11:05.015Z,50.41
2022-10-17T18:13:32.970Z,50.54
2022-10-17T18:16:01.922Z,50.48
2022-10-17T18:18:30.987Z,51.69
2022-10-17T18:21:02.900Z,51.31
2022-10-17T18:23:30.409Z,51.95
2022-10-17T18:26:01.645Z,51.99
2022-10-17T18:28:31.667Z,52.31
2022-10-17T18:31:06.216Z,52.56
2022-10-17T18:33:33.931Z,52.82
2022-10-17T18:36:10.402Z,52.45
2022-10-17T18:38:38.125Z,53.14
2022-10-17T18:41:15.502Z,53.09
2022-10-17T18:43:47.849Z,53.61
2022-10-17T18:46:26.746Z,53.23
2022-10-17T18:48:54.604Z,53.54
2022-10-17T18:51:23.922Z,53.72
2022-10-17T18:53:54.976Z,53.67
2022-10-17T18:56:23.450Z,54.01
2022-10-17T19:02:41.837Z,53.79
2022-10-17T19:05:09.157Z,54.22
2022-10-17T19:07:36.558Z,54.68
2022-10-17T19:10:04.140Z,54.63
2022-10-17T19:12:31.058Z,54.72
2022-10-17T19:14:57.756Z,54.66
2022-10-17T19:17:25.311Z,54.84
2022-10-17T19:19:53.555Z,54.53
2022-10-17T19:22:20.316Z,55.08
2022-10-17T19:24:47.345Z,54.94
2022-10-17T19:27:14.327Z,55.24
2022-10-17T19:29:43.798Z,54.93
2022-10-17T19:32:15.732Z,55.34
2022-10-17T19:34:45.100Z,55.57
2022-10-17T19:37:13.143Z,55.34
2022-10-17T19:39:41.824Z,55.41
2022-10-17T19:42:08.606Z,55.58
2022-10-17T19:44:36.274Z,55.73
2022-10-17T19:47:03.234Z,55.67
2022-10-17T19:49:30.401Z,55.84
2022-10-17T19:51:57.265Z,55.82
2022-10-17T19:54:33.275Z,56.01
2022-10-17T19:57:03.177Z,56.27
2022-10-17T19:59:32.861Z,56.32
2022-10-17T20:02:00.270Z,56.22
2022-10-17T20:04:27.721Z,56.31
2022-10-17T20:06:59.873Z,56.57
2022-10-17T20:09:27.133Z,56.61
2022-10-17T20:11:53.931Z,56.67
2022-10-17T20:14:20.990Z,56.71
2022-10-17T20:16:52.641Z,56.79
2022-10-17T20:19:20.546Z,57.35
2022-10-17T20:21:47.652Z,57.26
2022-10-17T20:24:16.805Z,56.88
2022-10-17T20:26:44.642Z,57.05
2022-10-17T20:29:17.992Z,57.30
2022-10-17T20:31:46.457Z,57.56
2022-10-17T20:34:15.882Z,57.13
2022-10-17T20:36:43.022Z,57.40
2022-10-17T20:39:12.263Z,57.75
2022-10-17T20:41:39.076Z,57.55
2022-10-17T20:44:07.101Z,57.89
2022-10-17T20:46:37.235Z,57.79
2022-10-17T20:49:08.644Z,58.57
2022-10-17T20:51:36.137Z,58.06
2022-10-17T20:54:03.571Z,57.95
2022-10-17T20:56:32.129Z,58.60
2022-10-17T20:59:01.360Z,58.30
2022-10-17T21:01:29.542Z,58.36
2022-10-17T21:03:59.627Z,58.30
2022-10-17T21:06:26.880Z,58.29
2022-10-17T21:08:55.802Z,58.50
2022-10-17T21:11:25.830Z,58.30
2022-10-17T21:14:03.167Z,58.38
2022-10-17T21:16:32.890Z,58.45
2022-10-17T21:19:00.277Z,58.45
2022-10-17T21:21:33.940Z,58.18
2022-10-17T21:24:03.754Z,58.17
2022-10-17T21:26:33.294Z,58.76
2022-10-17T21:29:05.680Z,58.83
2022-10-17T21:31:38.158Z,58.80
2022-10-17T21:34:13.561Z,58.60
2022-10-17T21:36:40.761Z,58.67
2022-10-17T21:41:40.074Z,58.81
2022-10-17T21:44:12.287Z,58.90
2022-10-17T21:46:39.022Z,58.88
2022-10-17T21:49:05.827Z,58.97
2022-10-17T21:51:32.613Z,59.15
2022-10-17T21:53:59.388Z,59.34
2022-10-17T21:56:28.871Z,59.19
2022-10-17T21:58:56.849Z,59.42
2022-10-17T22:01:29.309Z,59.34
2022-10-17T22:03:59.345Z,59.11
2022-10-17T22:06:43.739Z,59.28
2022-10-17T22:09:15.938Z,59.58
2022-10-17T22:11:46.104Z,59.29
2022-10-17T22:14:16.320Z,59.48
2022-10-17T22:16:45.416Z,59.53
2022-10-17T22:19:14.289Z,59.67
2022-10-17T22:21:41.138Z,59.79
2022-10-17T22:24:11.225Z,59.76
2022-10-17T22:26:38.230Z,59.87
2022-10-17T22:29:06.973Z,59.82
2022-10-17T22:31:34.626Z,59.64
2022-10-17T22:34:01.310Z,59.62
2022-10-17T22:36:28.181Z,60.00
2022-10-17T22:38:55.188Z,60.03
2022-10-17T22:41:21.857Z,60.02
2022-10-17T22:43:48.542Z,60.13
2022-10-17T22:46:18.664Z,59.98
2022-10-17T22:48:46.187Z,60.15
2022-10-17T22:51:13.704Z,60.03
2022-10-17T22:53:40.679Z,60.02
2022-10-17T22:56:17.089Z,59.91
2022-10-17T22:58:43.913Z,60.10
2022-10-17T23:01:15.706Z,59.89
2022-10-17T23:03:43.314Z,60.24
2022-10-17T23:06:10.622Z,60.58
2022-10-17T23:08:37.925Z,60.65
2022-10-17T23:11:05.675Z,60.25
2022-10-17T23:13:32.627Z,60.59
2022-10-17T23:15:59.301Z,60.64
2022-10-17T23:18:27.230Z,60.75
2022-10-17T23:20:54.056Z,60.60
2022-10-17T23:23:21.450Z,60.70
2022-10-17T23:25:49.065Z,60.61
2022-10-17T23:28:15.758Z,60.70
2022-10-17T23:30:42.587Z,60.73
2022-10-17T23:33:11.454Z,60.66
2022-10-17T23:35:39.119Z,60.62
2022-10-17T23:38:05.855Z,60.96
2022-10-17T23:40:32.658Z,60.81
2022-10-17T23:42:59.354Z,61.17
2022-10-17T23:45:26.072Z,61.12
2022-10-17T23:47:52.887Z,60.98
2022-10-17T23:50:19.545Z,60.95
2022-10-17T23:52:46.289Z,60.97
2022-10-17T23:55:13.071Z,61.16
2022-10-17T23:57:39.850Z,61.06
